Time;durP1;ratioP1;P1;durP2;ratioP2;P2;SDS_P1;SDS_P2;PMS_P1;PMS_P2;Temp;Humidity;BMP_temperature;BMP_pressure;BME280_temperature;BME280_humidity;BME280_pressure;Samples;Min_cycle;Max_cycle;Signal;HPM_P1;HPM_P2
2022/04/18 00:00:43;;;;;;;0.00;0.00;;;;;;;12.02;47.29;102087.13;5062870;28;20033;-78
2022/04/18 00:03:09;;;;;;;0.10;0.10;;;;;;;12.00;47.14;102082.72;5062766;28;20021;-78
2022/04/18 00:05:35;;;;;;;0.20;0.20;;;;;;;11.98;48.00;102078.28;5062920;28;20029;-78
2022/04/18 00:08:03;;;;;;;0.30;0.30;;;;;;;11.96;47.42;102077.44;5063028;28;20033;-79
2022/04/18 00:10:29;;;;;;;0.28;0.28;;;;;;;11.93;47.84;102072.09;5063027;28;20116;-77
2022/04/18 00:12:56;;;;;;;0.30;0.30;;;;;;;11.93;47.42;102082.72;5063206;28;20423;-78
2022/04/18 00:15:23;;;;;;;0.10;0.10;;;;;;;11.93;48.81;102073.88;5062477;28;20037;-77
2022/04/18 00:17:50;;;;;;;0.57;0.57;;;;;;;11.92;47.79;102072.97;5063529;28;20032;-78
2022/04/18 00:20:16;;;;;;;0.28;0.28;;;;;;;11.91;47.17;102068.59;5063606;28;20079;-76
2022/04/18 00:22:42;;;;;;;0.20;0.20;;;;;;;11.91;47.64;102073.91;5062423;28;20108;-76
2022/04/18 00:25:09;;;;;;;0.10;0.10;;;;;;;11.88;47.40;102063.28;5064727;28;20586;-78
2022/04/18 00:27:35;;;;;;;0.10;0.10;;;;;;;11.88;48.10;102070.38;5065880;28;20033;-77
2022/04/18 00:30:02;;;;;;;0.00;0.00;;;;;;;11.84;47.55;102069.50;5064518;28;20094;-78
2022/04/18 00:32:28;;;;;;;0.00;0.00;;;;;;;11.82;48.56;102061.56;5063872;28;20587;-78
2022/04/18 00:34:54;;;;;;;0.10;0.10;;;;;;;11.79;47.99;102064.22;5064661;28;20121;-78
2022/04/18 00:37:20;;;;;;;0.13;0.13;;;;;;;11.77;48.10;102065.97;5065339;28;20053;-78
2022/04/18 00:39:46;;;;;;;0.15;0.15;;;;;;;11.73;48.61;102068.69;5064830;28;20029;-78
2022/04/18 00:42:13;;;;;;;0.00;0.00;;;;;;;11.70;48.91;102069.59;5063401;28;20029;-77
2022/04/18 00:44:39;;;;;;;0.20;0.20;;;;;;;11.68;48.33;102060.72;5065465;28;20040;-77
2022/04/18 00:47:06;;;;;;;0.10;0.10;;;;;;;11.67;48.71;102060.75;5062203;28;20081;-78
2022/04/18 00:49:34;;;;;;;0.20;0.20;;;;;;;11.66;48.34;102062.50;5059830;28;20086;-79
2022/04/18 00:52:01;;;;;;;0.65;0.65;;;;;;;11.67;48.84;102058.09;5059308;28;20516;-79
2022/04/18 00:54:27;;;;;;;0.10;0.10;;;;;;;11.65;48.32;102063.38;5060431;28;20036;-78
2022/04/18 00:56:54;;;;;;;0.10;0.10;;;;;;;11.61;48.64;102064.31;5060860;28;20059;-76
2022/04/18 00:59:21;;;;;;;0.10;0.10;;;;;;;11.60;48.30;102071.41;5060730;28;20560;-78
2022/04/18 01:01:47;;;;;;;0.00;0.00;;;;;;;11.57;48.19;102068.72;5056969;28;20155;-78
2022/04/18 01:04:13;;;;;;;0.43;0.43;;;;;;;11.54;48.97;102063.47;5053668;28;20120;-77
2022/04/18 01:06:40;;;;;;;0.13;0.13;;;;;;;11.53;48.94;102063.47;5056748;28;20026;-78
2022/04/18 01:09:07;;;;;;;0.00;0.00;;;;;;;11.52;48.38;102064.34;5061196;28;20041;-78
2022/04/18 01:11:33;;;;;;;0.90;0.73;;;;;;;11.49;48.81;102065.25;5062509;28;20102;-77
2022/04/18 01:14:02;;;;;;;0.35;0.35;;;;;;;11.46;48.49;102063.50;5060671;28;20033;-76
2022/04/18 01:16:29;;;;;;;0.17;0.17;;;;;;;11.45;47.94;102059.06;5054989;28;20033;-77
2022/04/18 01:18:57;;;;;;;0.47;0.47;;;;;;;11.42;48.32;102059.06;5058482;28;20053;-76
2022/04/18 01:21:23;;;;;;;1.35;0.98;;;;;;;11.41;48.11;102059.09;5056963;28;20093;-77
2022/04/18 01:23:50;;;;;;;0.20;0.20;;;;;;;11.36;48.19;102053.78;5058384;28;20068;-76
2022/04/18 01:29:02;;;;;;;0.00;0.00;;;;;;;11.30;47.94;102059.09;5058172;28;20052;-78
2022/04/18 01:31:31;;;;;;;0.10;0.10;;;;;;;11.28;48.13;102050.28;5060914;28;20028;-77
2022/04/18 01:34:02;;;;;;;0.03;0.03;;;;;;;11.25;48.29;102051.19;5065740;28;20028;-76
2022/04/18 01:36:28;;;;;;;0.10;0.10;;;;;;;11.22;48.22;102053.84;5065529;28;20074;-77
2022/04/18 01:38:55;;;;;;;0.10;0.10;;;;;;;11.18;49.81;102049.44;5065635;28;20056;-76
2022/04/18 01:41:22;;;;;;;0.55;0.55;;;;;;;11.15;48.91;102049.44;5065452;28;20125;-77
2022/04/18 01:43:48;;;;;;;0.90;0.80;;;;;;;11.11;48.45;102045.91;5060621;28;20044;-77
2022/04/18 01:46:16;;;;;;;0.15;0.15;;;;;;;11.08;48.70;102053.88;5057579;28;20033;-78
2022/04/18 01:48:42;;;;;;;0.08;0.08;;;;;;;11.04;49.37;102057.44;5058273;28;20518;-77
2022/04/18 01:51:08;;;;;;;0.57;0.57;;;;;;;11.03;49.23;102054.78;5055720;28;20098;-77
2022/04/18 01:53:35;;;;;;;0.15;0.15;;;;;;;10.99;48.65;102057.44;5053783;28;20029;-78
2022/04/18 01:56:01;;;;;;;0.10;0.10;;;;;;;10.97;49.45;102050.38;5054650;28;20039;-77
2022/04/18 01:58:27;;;;;;;0.10;0.10;;;;;;;10.94;48.84;102053.03;5053880;28;20033;-77
2022/04/18 02:00:53;;;;;;;0.10;0.10;;;;;;;10.90;49.37;102049.50;5053203;28;20041;-78
2022/04/18 02:03:21;;;;;;;0.10;0.10;;;;;;;10.88;49.58;102048.63;5054029;28;20029;-78
2022/04/18 02:05:49;;;;;;;0.10;0.10;;;;;;;10.86;49.30;102042.44;5053783;28;20371;-77
2022/04/18 02:08:15;;;;;;;0.13;0.13;;;;;;;10.86;49.43;102047.75;5053169;28;20057;-77
2022/04/18 02:10:41;;;;;;;0.10;0.10;;;;;;;10.86;48.98;102042.44;5053136;28;20029;-75
2022/04/18 02:13:07;;;;;;;0.22;0.22;;;;;;;10.85;49.47;102043.31;5056811;28;20032;-78
2022/04/18 02:15:34;;;;;;;1.20;0.82;;;;;;;10.84;49.35;102038.91;5060767;28;20040;-76
2022/04/18 02:18:00;;;;;;;0.10;0.10;;;;;;;10.82;50.00;102044.22;5056587;28;20029;-78
2022/04/18 02:20:27;;;;;;;0.22;0.22;;;;;;;10.83;49.50;102037.16;5056147;28;20025;-78
2022/04/18 02:22:56;;;;;;;0.10;0.10;;;;;;;10.83;49.57;102037.16;5055096;28;20032;-77
2022/04/18 02:25:22;;;;;;;0.50;0.50;;;;;;;10.81;49.66;102038.91;5056178;28;20037;-78
2022/04/18 02:27:52;;;;;;;0.25;0.25;;;;;;;10.81;49.43;102033.63;5056922;28;20048;-76
2022/04/18 02:30:18;;;;;;;0.10;0.10;;;;;;;10.81;49.11;102033.63;5053930;28;20033;-78
2022/04/18 02:32:47;;;;;;;0.00;0.00;;;;;;;10.79;49.98;102041.56;5055683;28;20028;-78
2022/04/18 02:35:14;;;;;;;0.10;0.10;;;;;;;10.78;49.72;102033.59;5055966;28;20048;-77
2022/04/18 02:37:40;;;;;;;0.05;0.05;;;;;;;10.77;50.00;102031.88;5057015;28;20029;-78
2022/04/18 02:40:08;;;;;;;0.98;0.80;;;;;;;10.76;49.66;102028.31;5056242;28;20181;-78
2022/04/18 02:42:34;;;;;;;0.30;0.30;;;;;;;10.75;49.83;102028.31;5057139;28;20029;-78
2022/04/18 02:45:00;;;;;;;0.00;0.00;;;;;;;10.73;49.96;102024.78;5055342;28;20056;-77
2022/04/18 02:47:26;;;;;;;0.10;0.10;;;;;;;10.72;50.01;102025.69;5058352;28;20467;-78
2022/04/18 02:49:52;;;;;;;0.17;0.17;;;;;;;10.70;49.71;102032.75;5060875;28;20029;-77
2022/04/18 02:52:18;;;;;;;0.00;0.00;;;;;;;10.70;49.55;102035.41;5060977;28;20037;-78
2022/04/18 02:54:45;;;;;;;0.10;0.10;;;;;;;10.68;49.56;102028.34;5061444;28;20466;-77
2022/04/18 02:57:12;;;;;;;0.00;0.00;;;;;;;10.68;49.54;102027.47;5061388;28;20032;-78
2022/04/18 02:59:39;;;;;;;0.10;0.10;;;;;;;10.67;49.64;102021.25;5061394;28;20104;-78
2022/04/18 03:02:06;;;;;;;0.20;0.20;;;;;;;10.65;49.03;102014.19;5060205;28;20032;-76
2022/04/18 03:04:33;;;;;;;0.10;0.10;;;;;;;10.63;49.48;102024.81;5059231;28;20480;-78
2022/04/18 03:07:00;;;;;;;0.10;0.10;;;;;;;10.61;49.92;102015.97;5060119;28;20044;-77
2022/04/18 03:09:26;;;;;;;0.50;0.50;;;;;;;10.59;50.00;102017.75;5059913;28;20033;-77
2022/04/18 03:11:52;;;;;;;0.15;0.15;;;;;;;10.57;49.53;102011.56;5058091;28;20486;-78
2022/04/18 03:14:19;;;;;;;0.20;0.20;;;;;;;10.55;49.61;102023.91;5059506;28;20040;-78
2022/04/18 03:16:45;;;;;;;0.05;0.05;;;;;;;10.52;49.81;102022.16;5059194;28;20096;-77
2022/04/18 03:19:11;;;;;;;0.05;0.05;;;;;;;10.50;49.75;102023.03;5059002;28;20033;-77
2022/04/18 03:21:37;;;;;;;0.03;0.03;;;;;;;10.48;49.34;102009.81;5055965;28;20122;-78
2022/04/18 03:24:04;;;;;;;1.33;1.23;;;;;;;10.46;49.53;102016.00;5058637;28;20041;-78
2022/04/18 03:26:30;;;;;;;0.10;0.10;;;;;;;10.44;49.39;102023.94;5057162;28;20032;-75
2022/04/18 03:28:56;;;;;;;0.30;0.30;;;;;;;10.44;49.02;102018.66;5057418;28;20044;-76
2022/04/18 03:31:22;;;;;;;0.10;0.10;;;;;;;10.45;49.11;102024.81;5057000;28;20033;-77
2022/04/18 03:33:48;;;;;;;0.20;0.20;;;;;;;10.44;50.64;102017.75;5058105;28;20033;-75
2022/04/18 03:41:46;;;;;;;0.10;0.10;;;;;;;10.30;49.83;102015.06;5057157;28;20097;-77
2022/04/18 03:44:12;;;;;;;0.35;0.35;;;;;;;10.28;49.42;102017.72;5055058;28;20029;-77
2022/04/18 03:46:39;;;;;;;0.20;0.20;;;;;;;10.27;49.96;102021.25;5053761;28;20037;-77
2022/04/18 03:49:05;;;;;;;0.10;0.10;;;;;;;10.27;50.40;102015.97;5057860;28;20025;-76
2022/04/18 03:51:31;;;;;;;0.00;0.00;;;;;;;10.28;50.71;102022.13;5058996;28;20071;-77
2022/04/18 03:54:00;;;;;;;0.00;0.00;;;;;;;10.29;50.48;102016.84;5058516;28;20047;-78
2022/04/18 03:56:26;;;;;;;0.30;0.30;;;;;;;10.25;51.07;102017.72;5059049;28;20513;-78
2022/04/18 03:58:52;;;;;;;0.10;0.10;;;;;;;10.20;50.69;102009.78;5055521;22;20123;-79
2022/04/18 04:01:18;;;;;;;0.30;0.30;;;;;;;10.16;50.25;102012.44;5014748;28;20037;-78
2022/04/18 04:03:44;;;;;;;0.00;0.00;;;;;;;10.13;50.64;102012.41;5014964;28;20025;-78
2022/04/18 04:06:10;;;;;;;0.75;0.75;;;;;;;10.09;50.46;102011.53;5014381;28;20034;-77
2022/04/18 04:08:36;;;;;;;0.13;0.13;;;;;;;10.08;50.47;102003.59;5015612;28;20038;-78
2022/04/18 04:11:02;;;;;;;0.20;0.20;;;;;;;10.07;50.39;102007.13;5014475;28;20033;-78
2022/04/18 04:13:28;;;;;;;0.38;0.38;;;;;;;10.08;50.46;102003.59;5015054;28;20094;-77
2022/04/18 04:15:56;;;;;;;0.10;0.10;;;;;;;10.06;51.11;102010.66;5015183;28;20101;-78
2022/04/18 04:18:23;;;;;;;0.10;0.10;;;;;;;10.05;51.30;102007.13;5015223;28;20030;-78
2022/04/18 04:20:49;;;;;;;0.10;0.10;;;;;;;10.03;51.39;101995.63;5014349;28;20022;-78
2022/04/18 04:23:15;;;;;;;0.00;0.00;;;;;;;10.00;50.71;101996.50;5015352;28;20038;-78
2022/04/18 04:25:41;;;;;;;0.10;0.10;;;;;;;9.97;50.16;101990.31;5015271;28;20033;-77
2022/04/18 04:28:07;;;;;;;0.10;0.10;;;;;;;9.91;49.99;101988.56;5014210;28;20046;-78
2022/04/18 04:30:34;;;;;;;0.00;0.00;;;;;;;9.90;50.38;101978.88;5013335;28;20037;-78
2022/04/18 04:33:00;;;;;;;0.10;0.10;;;;;;;9.90;49.59;101989.44;5013644;28;20040;-78
2022/04/18 04:35:26;;;;;;;0.15;0.15;;;;;;;9.90;49.86;101984.16;5013789;28;20033;-78
2022/04/18 04:37:52;;;;;;;0.95;0.95;;;;;;;9.91;49.71;101980.63;5014395;28;20029;-78
2022/04/18 04:40:18;;;;;;;0.10;0.10;;;;;;;9.90;49.59;101981.50;5014367;28;20502;-78
2022/04/18 04:42:44;;;;;;;0.10;0.10;;;;;;;9.90;49.56;101976.22;5013138;28;20037;-76
2022/04/18 04:45:10;;;;;;;0.03;0.03;;;;;;;9.92;49.03;101982.41;5014052;28;20087;-78
2022/04/18 04:47:36;;;;;;;0.03;0.03;;;;;;;9.94;49.14;101979.75;5014092;28;20034;-78
2022/04/18 04:50:03;;;;;;;0.10;0.10;;;;;;;9.97;48.77;101985.03;5014236;28;20096;-78
2022/04/18 04:52:29;;;;;;;0.17;0.17;;;;;;;9.95;47.39;101986.81;5013615;28;20026;-78
2022/04/18 04:54:55;;;;;;;0.25;0.25;;;;;;;10.01;47.99;101994.78;5014390;28;20456;-78
2022/04/18 04:57:21;;;;;;;0.00;0.00;;;;;;;10.05;48.26;102001.81;5014836;28;20029;-78
2022/04/18 04:59:47;;;;;;;0.15;0.15;;;;;;;10.08;48.12;102003.59;5012740;28;20416;-78
2022/04/18 05:02:13;;;;;;;0.00;0.00;;;;;;;10.10;48.13;102013.28;5012648;28;20041;-78
2022/04/18 05:04:39;;;;;;;0.28;0.28;;;;;;;10.12;47.76;102021.22;5014284;28;20052;-78
2022/04/18 05:07:07;;;;;;;0.32;0.32;;;;;;;10.12;47.39;102016.84;5015263;28;20429;-78
2022/04/18 05:09:33;;;;;;;0.10;0.10;;;;;;;10.18;47.78;102016.84;5015339;28;20083;-78
2022/04/18 05:11:59;;;;;;;0.00;0.00;;;;;;;10.23;47.42;102015.94;5013976;28;20022;-79
2022/04/18 05:14:25;;;;;;;0.08;0.08;;;;;;;10.25;47.48;102015.06;5015040;28;20034;-78
2022/04/18 05:16:51;;;;;;;0.00;0.00;;;;;;;10.27;47.91;102009.75;5014433;28;20029;-79
2022/04/18 05:19:17;;;;;;;0.10;0.10;;;;;;;10.29;48.50;102013.31;5014731;28;20048;-76
2022/04/18 05:21:43;;;;;;;0.10;0.10;;;;;;;10.32;49.42;101998.31;5013383;28;20547;-79
2022/04/18 05:24:09;;;;;;;0.10;0.10;;;;;;;10.36;48.98;101999.22;5014740;28;20037;-78
2022/04/18 05:26:35;;;;;;;0.00;0.00;;;;;;;10.40;49.86;101994.81;5015007;28;20503;-78
2022/04/18 05:29:01;;;;;;;0.10;0.10;;;;;;;10.43;49.42;102006.28;5014953;28;20033;-78
2022/04/18 05:31:27;;;;;;;0.10;0.10;;;;;;;10.46;49.70;102000.09;5014568;28;20018;-78
2022/04/18 05:33:53;;;;;;;0.08;0.08;;;;;;;10.50;49.70;102004.50;5015570;28;20038;-78
2022/04/18 05:36:20;;;;;;;0.10;0.10;;;;;;;10.52;50.09;102000.97;5015230;28;20026;-78
2022/04/18 05:38:46;;;;;;;0.32;0.32;;;;;;;10.54;49.46;102003.59;5014443;28;20113;-78
2022/04/18 05:41:12;;;;;;;0.10;0.10;;;;;;;10.55;49.12;101999.19;5013659;28;20120;-78
2022/04/18 05:43:38;;;;;;;0.20;0.20;;;;;;;10.55;48.62;102002.72;5014999;28;20030;-78
2022/04/18 05:46:04;;;;;;;0.00;0.00;;;;;;;10.61;49.02;102004.50;5014802;28;20129;-80
2022/04/18 05:48:30;;;;;;;0.10;0.10;;;;;;;10.65;49.02;102001.84;5014891;28;20026;-79
2022/04/18 05:50:57;;;;;;;0.13;0.13;;;;;;;10.70;48.47;102004.47;5013998;28;20076;-79
2022/04/18 05:53:27;;;;;;;0.00;0.00;;;;;;;10.77;48.34;102000.91;5015209;28;20014;-79
2022/04/18 05:55:53;;;;;;;0.00;0.00;;;;;;;10.78;47.62;102000.03;5015848;28;20033;-78
2022/04/18 05:58:19;;;;;;;0.08;0.08;;;;;;;10.82;48.38;101998.28;5014887;28;20026;-78
2022/04/18 06:00:45;;;;;;;0.00;0.00;;;;;;;10.86;48.19;101994.72;5013837;28;20389;-79
2022/04/18 06:03:12;;;;;;;0.10;0.10;;;;;;;10.94;48.52;101992.03;5014993;28;20026;-78
2022/04/18 06:05:38;;;;;;;0.00;0.00;;;;;;;11.02;47.76;102000.00;5014024;28;20511;-79
2022/04/18 06:08:05;;;;;;;0.10;0.10;;;;;;;11.11;47.71;102007.91;5014427;28;20112;-79
2022/04/18 06:10:31;;;;;;;0.20;0.20;;;;;;;11.16;47.42;102008.75;5014080;28;20030;-79
2022/04/18 06:12:57;;;;;;;0.13;0.13;;;;;;;11.25;47.15;102006.09;5014537;28;20074;-79
2022/04/18 06:15:23;;;;;;;0.10;0.10;;;;;;;11.28;47.54;102003.41;5014971;28;20030;-79
2022/04/18 06:17:49;;;;;;;0.03;0.03;;;;;;;11.33;47.33;102001.63;5014545;28;20026;-79
2022/04/18 06:20:15;;;;;;;0.00;0.00;;;;;;;11.41;47.67;102011.31;5013878;28;20026;-79
2022/04/18 06:22:41;;;;;;;0.00;0.00;;;;;;;11.48;47.65;101999.78;5013484;28;20112;-79
2022/04/18 06:25:08;;;;;;;0.05;0.05;;;;;;;11.51;47.02;102005.06;5018215;28;20042;-79
2022/04/18 06:27:34;;;;;;;0.20;0.20;;;;;;;11.57;47.15;102001.50;5018219;28;20480;-78
2022/04/18 06:30:00;;;;;;;0.08;0.08;;;;;;;11.62;47.23;102005.00;5018212;28;20030;-79
2022/04/18 06:32:27;;;;;;;0.00;0.00;;;;;;;11.70;47.73;102003.22;5017377;28;20026;-79
2022/04/18 06:34:53;;;;;;;0.00;0.00;;;;;;;11.76;48.23;102005.81;5018584;28;20072;-80
2022/04/18 06:37:19;;;;;;;0.08;0.08;;;;;;;11.85;47.49;102001.31;5017767;28;20075;-78
2022/04/18 06:39:45;;;;;;;0.00;0.00;;;;;;;11.90;46.72;102008.38;5017488;28;20041;-79
2022/04/18 06:42:11;;;;;;;0.10;0.10;;;;;;;11.90;47.01;102005.72;5016879;28;20030;-80
2022/04/18 06:44:37;;;;;;;0.25;0.25;;;;;;;12.01;46.97;102010.97;5017938;28;20026;-79
2022/04/18 06:47:03;;;;;;;0.10;0.10;;;;;;;12.11;46.59;102009.13;5018026;28;20049;-80
2022/04/18 06:49:29;;;;;;;0.10;0.10;;;;;;;12.18;46.35;102015.31;5017922;28;20033;-80
2022/04/18 06:51:55;;;;;;;0.25;0.25;;;;;;;12.24;45.82;102015.25;5017119;28;20095;-79
2022/04/18 06:54:21;;;;;;;0.10;0.10;;;;;;;12.32;45.40;102020.50;5017592;28;20034;-79
2022/04/18 06:57:03;;;;;;;0.00;0.00;;;;;;;12.40;45.60;102005.34;5017475;28;20516;-79
2022/04/18 06:59:29;;;;;;;0.30;0.30;;;;;;;12.51;45.65;102007.91;5016689;28;20034;-78
2022/04/18 07:01:57;;;;;;;0.00;0.00;;;;;;;12.55;45.40;102018.50;5015786;28;20097;-78
2022/04/18 07:04:24;;;;;;;0.32;0.30;;;;;;;12.66;45.15;102010.44;5017532;28;20033;-78
2022/04/18 07:06:50;;;;;;;0.00;0.00;;;;;;;12.71;46.26;102013.94;5017583;28;20542;-78
2022/04/18 07:09:17;;;;;;;0.00;0.00;;;;;;;12.82;45.90;102020.91;5016890;28;20029;-76
2022/04/18 07:11:45;;;;;;;0.00;0.00;;;;;;;12.85;44.54;102019.09;5016172;28;20022;-78
2022/04/18 07:14:12;;;;;;;0.00;0.00;;;;;;;12.96;45.67;102011.03;5016972;28;20040;-76
2022/04/18 07:16:38;;;;;;;0.20;0.20;;;;;;;13.00;44.00;102014.53;5017184;28;20034;-78
2022/04/18 07:19:05;;;;;;;0.00;0.00;;;;;;;13.11;44.83;102013.50;5017525;28;20096;-78
2022/04/18 07:21:31;;;;;;;0.10;0.10;;;;;;;13.19;44.28;102016.06;5015044;28;20714;-78
2022/04/18 07:23:57;;;;;;;0.00;0.00;;;;;;;13.28;44.62;102009.72;5017036;28;20041;-79
2022/04/18 07:26:23;;;;;;;0.00;0.00;;;;;;;13.40;44.31;102014.06;5017280;28;20056;-76
2022/04/18 07:28:50;;;;;;;0.25;0.25;;;;;;;13.48;44.46;102004.19;5017181;28;20506;-78
2022/04/18 07:31:16;;;;;;;0.00;0.00;;;;;;;13.57;43.46;102005.84;5015994;28;20519;-79
2022/04/18 07:33:42;;;;;;;0.10;0.10;;;;;;;13.74;44.04;102002.94;5016878;28;20124;-78
2022/04/18 07:36:08;;;;;;;0.20;0.20;;;;;;;13.89;44.23;102005.38;5016659;28;20050;-78
2022/04/18 07:38:49;;;;;;;0.10;0.10;;;;;;;14.01;43.29;102006.09;5016629;28;20080;-78
2022/04/18 07:41:17;;;;;;;0.08;0.08;;;;;;;14.16;42.85;102003.19;5016045;28;20148;-78
2022/04/18 07:43:43;;;;;;;0.00;0.00;;;;;;;14.26;41.83;102001.25;5016890;28;20124;-78
2022/04/18 07:46:10;;;;;;;0.20;0.20;;;;;;;14.45;42.54;102001.78;5016909;28;20026;-79
2022/04/18 07:48:36;;;;;;;0.17;0.17;;;;;;;14.59;42.20;102004.22;5017189;28;20113;-77
2022/04/18 07:53:49;;;;;;;0.03;0.03;;;;;;;14.86;40.79;102000.19;5016303;28;20040;-79
2022/04/18 07:56:15;;;;;;;0.10;0.10;;;;;;;14.97;40.27;101999.97;5016406;28;20132;-78
2022/04/18 07:58:41;;;;;;;0.00;0.00;;;;;;;15.08;39.95;101991.75;5017671;28;20057;-79
2022/04/18 08:01:07;;;;;;;0.20;0.20;;;;;;;15.13;38.76;101997.00;5015153;28;20033;-79
2022/04/18 08:03:35;;;;;;;2.05;1.95;;;;;;;15.30;40.21;101997.53;5016069;28;20424;-79
2022/04/18 08:06:01;;;;;;;0.10;0.10;;;;;;;15.38;39.14;102000.03;5016093;28;20030;-79
2022/04/18 08:08:27;;;;;;;0.10;0.10;;;;;;;15.48;39.57;101985.56;5016409;28;20034;-79
2022/04/18 08:10:53;;;;;;;0.10;0.10;;;;;;;15.56;37.97;101989.84;5014653;28;20069;-79
2022/04/18 08:13:19;;;;;;;0.00;0.00;;;;;;;15.66;38.43;101984.28;5016114;28;20030;-79
2022/04/18 08:15:46;;;;;;;0.03;0.03;;;;;;;15.78;37.87;101992.91;5016162;28;20527;-79
2022/04/18 08:18:12;;;;;;;0.10;0.10;;;;;;;15.91;39.20;101994.41;5016027;28;20025;-79
2022/04/18 08:20:38;;;;;;;0.00;0.00;;;;;;;16.02;39.31;101996.81;5016416;28;20085;-79
2022/04/18 08:23:04;;;;;;;0.00;0.00;;;;;;;16.12;37.68;102000.16;5015725;28;20034;-78
2022/04/18 08:25:30;;;;;;;0.30;0.30;;;;;;;16.23;38.00;102002.56;5016365;28;20037;-78
2022/04/18 08:27:56;;;;;;;0.10;0.10;;;;;;;16.29;37.61;101999.72;5015650;28;20034;-77
2022/04/18 08:30:23;;;;;;;0.05;0.05;;;;;;;16.37;39.05;101995.03;5015009;28;20065;-79
2022/04/18 08:32:49;;;;;;;0.05;0.05;;;;;;;16.43;38.18;101994.03;5015057;28;20403;-79
2022/04/18 08:35:15;;;;;;;0.00;0.00;;;;;;;16.46;38.35;101993.94;5015243;28;20136;-79
2022/04/18 08:37:41;;;;;;;0.10;0.10;;;;;;;16.50;38.40;101988.47;5014785;28;20500;-79
2022/04/18 08:40:10;;;;;;;0.00;0.00;;;;;;;16.61;38.47;101988.19;5015971;28;20204;-79
2022/04/18 08:42:39;;;;;;;0.10;0.10;;;;;;;16.65;38.81;101992.53;5015171;28;20124;-79
2022/04/18 08:45:09;;;;;;;0.10;0.10;;;;;;;16.71;38.69;101991.50;5016036;28;20036;-79
2022/04/18 08:53:12;;;;;;;0.00;0.00;;;;;;;16.98;38.64;101984.53;5015939;28;20041;-79
2022/04/18 08:55:40;;;;;;;0.10;0.10;;;;;;;17.09;38.70;101991.34;5014850;28;20089;-79
2022/04/18 08:58:07;;;;;;;0.00;0.00;;;;;;;17.16;34.86;101984.91;5015285;28;20449;-78
2022/04/18 09:00:33;;;;;;;0.20;0.20;;;;;;;17.21;32.30;101984.75;5016058;28;20026;-79
2022/04/18 09:02:59;;;;;;;0.05;0.05;;;;;;;17.35;34.78;101993.25;5014232;28;20038;-78
2022/04/18 09:05:26;;;;;;;0.00;0.00;;;;;;;17.42;33.96;101986.78;5015402;28;20496;-78
2022/04/18 09:08:02;;;;;;;0.00;0.00;;;;;;;17.59;34.01;101983.56;5015113;28;20030;-78
2022/04/18 09:10:29;;;;;;;0.00;0.00;;;;;;;17.70;35.07;101987.75;5015203;28;20030;-78
2022/04/18 09:13:03;;;;;;;0.00;0.00;;;;;;;17.89;34.94;101982.66;5014586;28;20034;-79
2022/04/18 09:15:34;;;;;;;0.10;0.10;;;;;;;17.91;31.61;101986.19;5014895;28;20026;-79
2022/04/18 09:18:18;;;;;;;0.20;0.20;;;;;;;18.13;33.02;101980.13;5014235;28;20034;-79
2022/04/18 09:28:41;;;;;;;0.00;0.00;;;;;;;18.66;31.01;101974.69;5130992;27;803594;-77
2022/04/18 09:31:09;;;;;;;0.00;0.00;;;;;;;18.80;30.36;101965.28;5173557;27;20041;-79
2022/04/18 09:36:17;;;;;;;0.40;0.40;;;;;;;19.06;30.91;101967.88;5172408;27;123421;-79
2022/04/18 09:38:47;;;;;;;0.10;0.10;;;;;;;19.14;29.42;101966.72;5153907;27;20034;-80
2022/04/18 09:41:20;;;;;;;0.10;0.10;;;;;;;19.30;30.34;101964.31;5152977;27;20019;-80
2022/04/18 09:43:50;;;;;;;0.32;0.32;;;;;;;19.37;30.34;101955.09;5133329;27;20435;-79
2022/04/18 09:46:17;;;;;;;0.10;0.10;;;;;;;19.43;31.05;101953.94;5132974;27;20030;-79
2022/04/18 09:48:45;;;;;;;0.08;0.08;;;;;;;19.45;29.38;101965.53;5132919;28;20031;-80
2022/04/18 09:51:22;;;;;;;0.93;0.90;;;;;;;19.54;29.72;101962.50;5131351;27;20083;-78
2022/04/18 09:53:52;;;;;;;0.00;0.00;;;;;;;19.63;31.48;101955.88;5132193;27;20031;-77
2022/04/18 09:56:21;;;;;;;0.93;0.85;;;;;;;19.73;30.91;101958.09;5132303;27;20035;-79
2022/04/18 09:58:48;;;;;;;0.13;0.13;;;;;;;19.85;30.60;101959.44;5121201;22;20046;-78
2022/04/18 10:01:16;;;;;;;0.00;0.00;;;;;;;19.93;30.18;101953.75;5039842;28;20519;-78
2022/04/18 10:03:43;;;;;;;0.00;0.00;;;;;;;20.07;30.45;101957.69;5039825;28;20030;-78
2022/04/18 10:06:10;;;;;;;0.40;0.40;;;;;;;20.15;30.52;101951.03;5039774;28;20022;-78
2022/04/18 10:08:37;;;;;;;0.10;0.10;;;;;;;20.25;29.94;101948.81;5039201;28;20044;-78
2022/04/18 10:11:08;;;;;;;0.00;0.00;;;;;;;20.36;29.44;101948.34;5038943;28;20089;-78
2022/04/18 10:13:35;;;;;;;0.00;0.00;;;;;;;20.49;29.96;101941.47;5040197;28;20033;-78
2022/04/18 10:16:02;;;;;;;0.55;0.55;;;;;;;20.63;29.52;101943.53;5039357;28;20063;-77
2022/04/18 10:18:29;;;;;;;0.20;0.20;;;;;;;20.69;27.67;101937.88;5040082;28;20092;-78
2022/04/18 10:21:22;;;;;;;0.00;0.00;;;;;;;20.83;27.24;101936.41;5038711;28;20034;-77
2022/04/18 10:27:07;;;;;;;1.27;0.40;;;;;;;20.87;29.42;101935.31;5137745;27;20175;-77
2022/04/18 10:29:40;;;;;;;0.00;0.00;;;;;;;20.86;29.57;101939.00;5121676;28;20050;-77
2022/04/18 10:32:09;;;;;;;0.00;0.00;;;;;;;20.89;30.46;101938.84;5120699;28;20028;-78
2022/04/18 10:34:36;;;;;;;0.10;0.10;;;;;;;20.92;28.91;101933.31;5121121;28;20035;-78
2022/04/18 10:37:04;;;;;;;1.08;0.80;;;;;;;21.00;30.15;101935.66;5126258;28;20024;-77
2022/04/18 10:39:38;;;;;;;0.10;0.10;;;;;;;21.06;28.84;101935.38;5125402;28;20026;-78
2022/04/18 10:50:48;;;;;;;0.00;0.00;;;;;;;21.18;29.29;101923.13;5121023;27;20696;-77
2022/04/18 10:53:35;;;;;;;0.15;0.15;;;;;;;21.27;28.25;101914.59;5121106;28;20036;-78
2022/04/18 10:58:37;;;;;;;0.50;0.30;;;;;;;21.09;28.41;101912.78;5132484;27;20449;-78
2022/04/18 11:01:08;;;;;;;0.03;0.03;;;;;;;21.28;28.14;101912.78;5099933;28;20662;-78
2022/04/18 11:09:14;;;;;;;0.10;0.10;;;;;;;21.65;27.91;101917.25;5136939;27;20163;-77
2022/04/18 11:17:02;;;;;;;0.00;0.00;;;;;;;22.03;27.58;101904.59;5120966;27;20166;-77
2022/04/18 11:19:36;;;;;;;0.10;0.10;;;;;;;22.14;27.80;101908.50;5121739;28;20486;-77
2022/04/18 11:24:55;;;;;;;0.38;0.38;;;;;;;22.36;26.23;101906.50;5134326;27;20128;-78
2022/04/18 11:30:06;;;;;;;0.10;0.10;;;;;;;22.28;23.63;101902.38;5132992;27;20124;-78
2022/04/18 11:32:37;;;;;;;0.25;0.25;;;;;;;22.42;26.17;101901.69;5108794;28;20481;-77
2022/04/18 11:35:06;;;;;;;0.00;0.00;;;;;;;22.50;26.04;101895.84;5111505;28;20020;-77
2022/04/18 11:37:35;;;;;;;0.05;0.05;;;;;;;22.51;25.34;101892.22;5112555;28;20458;-77
2022/04/18 11:40:04;;;;;;;0.00;0.00;;;;;;;22.56;25.06;101890.13;5112225;28;20028;-77
2022/04/18 11:42:32;;;;;;;0.00;0.00;;;;;;;22.60;24.10;101886.31;5111498;28;20024;-77
2022/04/18 11:45:02;;;;;;;0.00;0.00;;;;;;;22.61;25.61;101893.44;5112925;28;20032;-78
2022/04/18 11:47:30;;;;;;;0.20;0.20;;;;;;;22.77;23.68;101890.78;5113395;28;20035;-77
2022/04/18 11:50:01;;;;;;;0.00;0.00;;;;;;;22.88;25.63;101889.31;5112323;28;20085;-78
2022/04/18 11:52:32;;;;;;;0.10;0.10;;;;;;;22.97;25.02;101885.22;5111592;28;20032;-78
2022/04/18 11:55:02;;;;;;;0.10;0.10;;;;;;;23.06;25.56;101884.72;5112525;28;20116;-77
2022/04/18 11:57:31;;;;;;;0.10;0.10;;;;;;;23.13;24.75;101886.13;5112541;28;20442;-77
2022/04/18 12:00:04;;;;;;;0.00;0.00;;;;;;;23.27;24.41;101883.53;5118580;28;20016;-76
2022/04/18 12:08:11;;;;;;;0.05;0.05;;;;;;;23.45;22.75;101875.31;5116587;28;20036;-77
2022/04/18 12:10:41;;;;;;;0.08;0.08;;;;;;;23.48;23.49;101879.66;5119325;28;20451;-77
2022/04/18 12:13:11;;;;;;;0.50;0.50;;;;;;;23.63;24.03;101883.31;5116460;28;20349;-78
2022/04/18 12:15:38;;;;;;;0.25;0.25;;;;;;;23.67;23.93;101876.78;5113001;28;20089;-77
2022/04/18 12:20:51;;;;;;;0.05;0.05;;;;;;;23.75;21.42;101874.47;5134388;27;20252;-78
2022/04/18 12:23:24;;;;;;;0.00;0.00;;;;;;;23.82;21.82;101867.72;5119136;28;20424;-78
2022/04/18 12:25:52;;;;;;;0.00;0.00;;;;;;;23.89;23.49;101860.13;5119149;28;20019;-77
2022/04/18 12:28:23;;;;;;;0.00;0.00;;;;;;;23.97;23.67;101863.25;5120248;28;20028;-78
2022/04/18 12:30:50;;;;;;;0.00;0.00;;;;;;;24.11;22.49;101867.81;5118984;28;20409;-78
2022/04/18 12:33:21;;;;;;;0.10;0.10;;;;;;;24.16;22.75;101863.03;5118244;28;20103;-78